sensor_id;sensor_type;location;lat;lon;timestamp;temperature;humidity
15107;DHT22;7654;45.308;-75.096;2023-03-31T00:02:13;-4.40;99.00
15107;DHT22;7654;45.308;-75.096;2023-03-31T00:04:44;-4.50;99.90
15107;DHT22;7654;45.308;-75.096;2023-03-31T00:07:20;-4.60;99.90
15107;DHT22;7654;45.308;-75.096;2023-03-31T00:09:53;-4.70;99.90
15107;DHT22;7654;45.308;-75.096;2023-03-31T00:12:43;-4.80;99.90
15107;DHT22;7654;45.308;-75.096;2023-03-31T00:15:16;-5.00;99.90
15107;DHT22;7654;45.308;-75.096;2023-03-31T00:17:47;-5.00;99.90
15107;DHT22;7654;45.308;-75.096;2023-03-31T00:20:17;-5.00;99.90
15107;DHT22;7654;45.308;-75.096;2023-03-31T00:22:47;-5.10;99.90
15107;DHT22;7654;45.308;-75.096;2023-03-31T00:25:20;-5.10;99.90
15107;DHT22;7654;45.308;-75.096;2023-03-31T00:27:50;-5.10;99.90
15107;DHT22;7654;45.308;-75.096;2023-03-31T00:30:21;-5.10;99.90
15107;DHT22;7654;45.308;-75.096;2023-03-31T00:32:52;-5.00;99.90
15107;DHT22;7654;45.308;-75.096;2023-03-31T00:35:22;-4.90;99.90
15107;DHT22;7654;45.308;-75.096;2023-03-31T00:37:53;-4.90;99.90
15107;DHT22;7654;45.308;-75.096;2023-03-31T00:40:29;-4.90;99.90
15107;DHT22;7654;45.308;-75.096;2023-03-31T00:42:59;-4.90;99.90
15107;DHT22;7654;45.308;-75.096;2023-03-31T00:45:31;-5.00;99.90
15107;DHT22;7654;45.308;-75.096;2023-03-31T00:48:05;-5.20;99.90
15107;DHT22;7654;45.308;-75.096;2023-03-31T00:50:42;-5.20;99.90
15107;DHT22;7654;45.308;-75.096;2023-03-31T00:53:17;-5.20;99.90
15107;DHT22;7654;45.308;-75.096;2023-03-31T00:55:52;-5.30;99.90
15107;DHT22;7654;45.308;-75.096;2023-03-31T00:58:24;-5.40;99.90
15107;DHT22;7654;45.308;-75.096;2023-03-31T01:00:57;-5.40;99.90
15107;DHT22;7654;45.308;-75.096;2023-03-31T01:03:29;-5.30;99.90
15107;DHT22;7654;45.308;-75.096;2023-03-31T01:06:02;-5.30;99.90
15107;DHT22;7654;45.308;-75.096;2023-03-31T01:08:34;-5.20;99.90
15107;DHT22;7654;45.308;-75.096;2023-03-31T01:11:09;-5.10;99.90
15107;DHT22;7654;45.308;-75.096;2023-03-31T01:13:41;-5.10;99.90
15107;DHT22;7654;45.308;-75.096;2023-03-31T01:16:13;-5.10;99.90
15107;DHT22;7654;45.308;-75.096;2023-03-31T01:18:43;-5.20;99.90
15107;DHT22;7654;45.308;-75.096;2023-03-31T01:24:35;-5.20;99.90
15107;DHT22;7654;45.308;-75.096;2023-03-31T01:27:31;-5.20;99.90
15107;DHT22;7654;45.308;-75.096;2023-03-31T01:33:23;-5.20;99.90
15107;DHT22;7654;45.308;-75.096;2023-03-31T01:36:26;-5.10;99.90
15107;DHT22;7654;45.308;-75.096;2023-03-31T01:39:27;-4.90;99.90
15107;DHT22;7654;45.308;-75.096;2023-03-31T01:42:05;-4.70;99.90
15107;DHT22;7654;45.308;-75.096;2023-03-31T01:44:42;-4.50;99.90
15107;DHT22;7654;45.308;-75.096;2023-03-31T01:47:17;-4.50;99.90
15107;DHT22;7654;45.308;-75.096;2023-03-31T01:49:55;-4.30;99.90
15107;DHT22;7654;45.308;-75.096;2023-03-31T01:52:36;-4.00;99.90
15107;DHT22;7654;45.308;-75.096;2023-03-31T01:55:12;-3.60;99.90
15107;DHT22;7654;45.308;-75.096;2023-03-31T01:57:49;-3.30;99.90
15107;DHT22;7654;45.308;-75.096;2023-03-31T02:00:25;-3.20;99.90
15107;DHT22;7654;45.308;-75.096;2023-03-31T02:03:04;-3.10;99.90
15107;DHT22;7654;45.308;-75.096;2023-03-31T02:05:40;-3.10;99.90
15107;DHT22;7654;45.308;-75.096;2023-03-31T02:08:14;-3.20;99.90
15107;DHT22;7654;45.308;-75.096;2023-03-31T02:10:46;-3.20;99.90
15107;DHT22;7654;45.308;-75.096;2023-03-31T02:13:20;-3.10;99.90
15107;DHT22;7654;45.308;-75.096;2023-03-31T02:15:53;-3.00;99.90
15107;DHT22;7654;45.308;-75.096;2023-03-31T02:18:26;-3.00;99.90
15107;DHT22;7654;45.308;-75.096;2023-03-31T02:20:58;-3.00;99.90
15107;DHT22;7654;45.308;-75.096;2023-03-31T02:23:31;-3.00;99.90
15107;DHT22;7654;45.308;-75.096;2023-03-31T02:26:04;-3.00;99.90
15107;DHT22;7654;45.308;-75.096;2023-03-31T02:28:38;-3.00;99.90
15107;DHT22;7654;45.308;-75.096;2023-03-31T02:31:22;-3.00;99.90
15107;DHT22;7654;45.308;-75.096;2023-03-31T02:33:54;-2.80;99.90
15107;DHT22;7654;45.308;-75.096;2023-03-31T02:36:25;-2.70;99.90
15107;DHT22;7654;45.308;-75.096;2023-03-31T02:38:58;-2.50;99.90
15107;DHT22;7654;45.308;-75.096;2023-03-31T02:41:31;-2.40;99.90
15107;DHT22;7654;45.308;-75.096;2023-03-31T02:44:03;-2.30;99.90
15107;DHT22;7654;45.308;-75.096;2023-03-31T02:46:34;-2.20;99.90
15107;DHT22;7654;45.308;-75.096;2023-03-31T02:49:07;-2.10;99.90
15107;DHT22;7654;45.308;-75.096;2023-03-31T02:51:50;-2.10;99.90
15107;DHT22;7654;45.308;-75.096;2023-03-31T02:54:47;-2.00;99.90
15107;DHT22;7654;45.308;-75.096;2023-03-31T03:00:23;-1.90;99.90
15107;DHT22;7654;45.308;-75.096;2023-03-31T03:03:08;-1.90;99.90
15107;DHT22;7654;45.308;-75.096;2023-03-31T03:05:47;-1.90;99.90
15107;DHT22;7654;45.308;-75.096;2023-03-31T03:08:30;-1.80;99.90
15107;DHT22;7654;45.308;-75.096;2023-03-31T03:11:10;-1.80;99.90
15107;DHT22;7654;45.308;-75.096;2023-03-31T03:13:48;-1.80;99.90
15107;DHT22;7654;45.308;-75.096;2023-03-31T03:16:22;-1.80;99.90
15107;DHT22;7654;45.308;-75.096;2023-03-31T03:18:57;-1.80;99.90
15107;DHT22;7654;45.308;-75.096;2023-03-31T03:21:28;-1.90;99.90
15107;DHT22;7654;45.308;-75.096;2023-03-31T03:23:59;-1.80;99.90
15107;DHT22;7654;45.308;-75.096;2023-03-31T03:26:29;-1.90;99.90
15107;DHT22;7654;45.308;-75.096;2023-03-31T03:29:02;-1.80;99.90
15107;DHT22;7654;45.308;-75.096;2023-03-31T03:31:34;-1.90;99.90
15107;DHT22;7654;45.308;-75.096;2023-03-31T03:34:05;-1.80;99.90
15107;DHT22;7654;45.308;-75.096;2023-03-31T03:36:37;-1.80;99.90
15107;DHT22;7654;45.308;-75.096;2023-03-31T03:39:07;-1.90;99.90
15107;DHT22;7654;45.308;-75.096;2023-03-31T03:41:38;-1.90;99.90
15107;DHT22;7654;45.308;-75.096;2023-03-31T03:44:09;-2.00;99.90
15107;DHT22;7654;45.308;-75.096;2023-03-31T03:46:41;-1.90;99.90
15107;DHT22;7654;45.308;-75.096;2023-03-31T03:49:11;-1.90;99.90
15107;DHT22;7654;45.308;-75.096;2023-03-31T03:51:42;-1.90;99.90
15107;DHT22;7654;45.308;-75.096;2023-03-31T03:54:12;-1.90;99.90
15107;DHT22;7654;45.308;-75.096;2023-03-31T03:56:42;-2.00;99.90
15107;DHT22;7654;45.308;-75.096;2023-03-31T03:59:13;-2.00;99.90
15107;DHT22;7654;45.308;-75.096;2023-03-31T04:01:45;-2.00;99.90
15107;DHT22;7654;45.308;-75.096;2023-03-31T04:04:15;-2.00;99.90
15107;DHT22;7654;45.308;-75.096;2023-03-31T04:06:45;-2.00;99.90
15107;DHT22;7654;45.308;-75.096;2023-03-31T04:09:15;-2.10;99.90
15107;DHT22;7654;45.308;-75.096;2023-03-31T04:12:04;-2.10;99.90
15107;DHT22;7654;45.308;-75.096;2023-03-31T04:14:35;-2.10;99.90
15107;DHT22;7654;45.308;-75.096;2023-03-31T04:17:07;-2.10;99.90
15107;DHT22;7654;45.308;-75.096;2023-03-31T04:19:37;-2.20;99.90
15107;DHT22;7654;45.308;-75.096;2023-03-31T04:22:09;-2.20;99.90
15107;DHT22;7654;45.308;-75.096;2023-03-31T04:24:42;-2.20;99.90
15107;DHT22;7654;45.308;-75.096;2023-03-31T04:27:14;-2.20;99.90
15107;DHT22;7654;45.308;-75.096;2023-03-31T04:29:47;-2.20;99.90
15107;DHT22;7654;45.308;-75.096;2023-03-31T04:32:24;-2.30;99.90
15107;DHT22;7654;45.308;-75.096;2023-03-31T04:34:55;-2.40;99.90
15107;DHT22;7654;45.308;-75.096;2023-03-31T04:37:31;-2.40;99.90
15107;DHT22;7654;45.308;-75.096;2023-03-31T04:40:02;-2.40;99.90
15107;DHT22;7654;45.308;-75.096;2023-03-31T04:42:37;-2.40;99.90
15107;DHT22;7654;45.308;-75.096;2023-03-31T04:45:08;-2.40;99.90
15107;DHT22;7654;45.308;-75.096;2023-03-31T04:47:40;-2.40;99.90
15107;DHT22;7654;45.308;-75.096;2023-03-31T04:50:11;-2.40;99.90
15107;DHT22;7654;45.308;-75.096;2023-03-31T04:52:43;-2.40;99.90
15107;DHT22;7654;45.308;-75.096;2023-03-31T04:55:14;-2.40;99.90
15107;DHT22;7654;45.308;-75.096;2023-03-31T04:57:44;-2.40;99.90
15107;DHT22;7654;45.308;-75.096;2023-03-31T05:00:16;-2.40;99.90
15107;DHT22;7654;45.308;-75.096;2023-03-31T05:02:48;-2.50;99.90
15107;DHT22;7654;45.308;-75.096;2023-03-31T05:05:18;-2.60;99.90
15107;DHT22;7654;45.308;-75.096;2023-03-31T05:07:49;-2.60;99.90
15107;DHT22;7654;45.308;-75.096;2023-03-31T05:10:19;-2.70;99.90
15107;DHT22;7654;45.308;-75.096;2023-03-31T05:12:50;-2.80;99.90
15107;DHT22;7654;45.308;-75.096;2023-03-31T05:15:20;-2.90;99.90
15107;DHT22;7654;45.308;-75.096;2023-03-31T05:17:53;-2.90;99.90
15107;DHT22;7654;45.308;-75.096;2023-03-31T05:20:23;-3.00;99.90
15107;DHT22;7654;45.308;-75.096;2023-03-31T05:22:53;-3.10;99.90
15107;DHT22;7654;45.308;-75.096;2023-03-31T05:25:24;-3.10;99.90
15107;DHT22;7654;45.308;-75.096;2023-03-31T05:27:59;-3.10;99.90
15107;DHT22;7654;45.308;-75.096;2023-03-31T05:30:30;-3.10;99.90
15107;DHT22;7654;45.308;-75.096;2023-03-31T05:33:02;-3.20;99.90
15107;DHT22;7654;45.308;-75.096;2023-03-31T05:35:32;-3.20;99.90
15107;DHT22;7654;45.308;-75.096;2023-03-31T05:38:03;-3.20;99.90
15107;DHT22;7654;45.308;-75.096;2023-03-31T05:40:34;-3.20;99.90
15107;DHT22;7654;45.308;-75.096;2023-03-31T05:43:04;-3.20;99.90
15107;DHT22;7654;45.308;-75.096;2023-03-31T05:45:35;-3.20;99.90
15107;DHT22;7654;45.308;-75.096;2023-03-31T05:48:07;-3.20;99.90
15107;DHT22;7654;45.308;-75.096;2023-03-31T05:50:37;-3.30;99.90
15107;DHT22;7654;45.308;-75.096;2023-03-31T05:53:10;-3.30;99.90
15107;DHT22;7654;45.308;-75.096;2023-03-31T05:55:40;-3.30;99.90
15107;DHT22;7654;45.308;-75.096;2023-03-31T05:58:10;-3.40;99.90
15107;DHT22;7654;45.308;-75.096;2023-03-31T06:00:40;-3.40;99.90
15107;DHT22;7654;45.308;-75.096;2023-03-31T06:03:13;-3.40;99.90
15107;DHT22;7654;45.308;-75.096;2023-03-31T06:05:46;-3.50;99.90
15107;DHT22;7654;45.308;-75.096;2023-03-31T06:08:17;-3.50;99.90
15107;DHT22;7654;45.308;-75.096;2023-03-31T06:10:47;-3.50;99.90
15107;DHT22;7654;45.308;-75.096;2023-03-31T06:13:17;-3.50;99.90
15107;DHT22;7654;45.308;-75.096;2023-03-31T06:15:53;-3.60;99.90
15107;DHT22;7654;45.308;-75.096;2023-03-31T06:18:26;-3.70;99.90
15107;DHT22;7654;45.308;-75.096;2023-03-31T06:20:57;-3.70;99.90
15107;DHT22;7654;45.308;-75.096;2023-03-31T06:23:27;-3.70;99.90
15107;DHT22;7654;45.308;-75.096;2023-03-31T06:26:00;-3.70;99.90
15107;DHT22;7654;45.308;-75.096;2023-03-31T06:28:31;-3.80;99.90
15107;DHT22;7654;45.308;-75.096;2023-03-31T06:31:02;-3.80;99.90
15107;DHT22;7654;45.308;-75.096;2023-03-31T06:33:34;-3.80;99.90
15107;DHT22;7654;45.308;-75.096;2023-03-31T06:36:05;-3.80;99.90
15107;DHT22;7654;45.308;-75.096;2023-03-31T06:38:36;-3.80;99.90
15107;DHT22;7654;45.308;-75.096;2023-03-31T06:41:08;-3.90;99.90
15107;DHT22;7654;45.308;-75.096;2023-03-31T06:43:40;-4.00;99.90
15107;DHT22;7654;45.308;-75.096;2023-03-31T06:46:10;-4.10;99.90
15107;DHT22;7654;45.308;-75.096;2023-03-31T06:48:42;-4.00;99.90
15107;DHT22;7654;45.308;-75.096;2023-03-31T06:51:13;-4.00;99.90
15107;DHT22;7654;45.308;-75.096;2023-03-31T06:53:43;-4.00;99.90
15107;DHT22;7654;45.308;-75.096;2023-03-31T06:56:14;-4.00;99.90
15107;DHT22;7654;45.308;-75.096;2023-03-31T06:58:44;-4.00;99.90
15107;DHT22;7654;45.308;-75.096;2023-03-31T07:01:14;-4.10;99.90
15107;DHT22;7654;45.308;-75.096;2023-03-31T07:03:46;-4.10;99.90
15107;DHT22;7654;45.308;-75.096;2023-03-31T07:06:17;-4.10;99.90
15107;DHT22;7654;45.308;-75.096;2023-03-31T07:08:47;-4.30;99.90
15107;DHT22;7654;45.308;-75.096;2023-03-31T07:11:18;-4.50;99.90
15107;DHT22;7654;45.308;-75.096;2023-03-31T07:13:48;-4.60;99.90
15107;DHT22;7654;45.308;-75.096;2023-03-31T07:16:19;-4.60;99.90
15107;DHT22;7654;45.308;-75.096;2023-03-31T07:18:51;-4.70;99.90
15107;DHT22;7654;45.308;-75.096;2023-03-31T07:21:26;-4.90;99.90
15107;DHT22;7654;45.308;-75.096;2023-03-31T07:23:57;-5.20;99.90
15107;DHT22;7654;45.308;-75.096;2023-03-31T07:26:27;-5.30;99.90
15107;DHT22;7654;45.308;-75.096;2023-03-31T07:28:57;-5.50;99.90
15107;DHT22;7654;45.308;-75.096;2023-03-31T07:31:28;-5.70;99.90
15107;DHT22;7654;45.308;-75.096;2023-03-31T07:34:00;-5.80;99.90
15107;DHT22;7654;45.308;-75.096;2023-03-31T07:36:30;-5.90;99.90
15107;DHT22;7654;45.308;-75.096;2023-03-31T07:39:01;-6.10;99.90
15107;DHT22;7654;45.308;-75.096;2023-03-31T07:41:32;-6.20;99.90
15107;DHT22;7654;45.308;-75.096;2023-03-31T07:44:02;-6.30;99.90
15107;DHT22;7654;45.308;-75.096;2023-03-31T07:46:32;-6.50;99.90
15107;DHT22;7654;45.308;-75.096;2023-03-31T07:49:04;-6.70;99.90
15107;DHT22;7654;45.308;-75.096;2023-03-31T07:51:37;-6.80;99.90
15107;DHT22;7654;45.308;-75.096;2023-03-31T07:54:07;-6.90;99.90
15107;DHT22;7654;45.308;-75.096;2023-03-31T07:56:37;-7.00;99.90
15107;DHT22;7654;45.308;-75.096;2023-03-31T07:59:07;-7.00;99.90
15107;DHT22;7654;45.308;-75.096;2023-03-31T08:01:38;-7.00;99.90
15107;DHT22;7654;45.308;-75.096;2023-03-31T08:04:11;-6.80;99.90
15107;DHT22;7654;45.308;-75.096;2023-03-31T08:06:41;-6.90;99.90
15107;DHT22;7654;45.308;-75.096;2023-03-31T08:09:12;-7.00;99.90
15107;DHT22;7654;45.308;-75.096;2023-03-31T08:11:42;-6.90;99.90
15107;DHT22;7654;45.308;-75.096;2023-03-31T08:14:14;-6.80;99.90
15107;DHT22;7654;45.308;-75.096;2023-03-31T08:17:00;-6.80;99.90
15107;DHT22;7654;45.308;-75.096;2023-03-31T08:19:33;-6.80;99.90
15107;DHT22;7654;45.308;-75.096;2023-03-31T08:22:04;-6.80;99.90
15107;DHT22;7654;45.308;-75.096;2023-03-31T08:24:35;-6.60;99.90
15107;DHT22;7654;45.308;-75.096;2023-03-31T08:27:05;-6.40;99.90
15107;DHT22;7654;45.308;-75.096;2023-03-31T08:29:38;-6.10;99.90
15107;DHT22;7654;45.308;-75.096;2023-03-31T08:32:09;-5.90;99.90
15107;DHT22;7654;45.308;-75.096;2023-03-31T08:34:41;-5.50;99.90
15107;DHT22;7654;45.308;-75.096;2023-03-31T08:37:12;-5.30;99.90
15107;DHT22;7654;45.308;-75.096;2023-03-31T08:39:43;-5.20;99.90
15107;DHT22;7654;45.308;-75.096;2023-03-31T08:42:16;-5.20;99.90
15107;DHT22;7654;45.308;-75.096;2023-03-31T08:44:54;-5.20;99.90
15107;DHT22;7654;45.308;-75.096;2023-03-31T08:47:29;-5.20;99.90
15107;DHT22;7654;45.308;-75.096;2023-03-31T08:50:07;-5.10;99.90
15107;DHT22;7654;45.308;-75.096;2023-03-31T08:52:46;-5.10;99.90
15107;DHT22;7654;45.308;-75.096;2023-03-31T08:55:21;-5.20;99.90
15107;DHT22;7654;45.308;-75.096;2023-03-31T08:57:58;-5.30;99.90
15107;DHT22;7654;45.308;-75.096;2023-03-31T09:00:37;-5.20;99.90
15107;DHT22;7654;45.308;-75.096;2023-03-31T09:03:16;-5.20;99.90
15107;DHT22;7654;45.308;-75.096;2023-03-31T09:05:55;-5.10;99.90
15107;DHT22;7654;45.308;-75.096;2023-03-31T09:08:36;-5.20;99.90
15107;DHT22;7654;45.308;-75.096;2023-03-31T09:11:14;-5.10;99.90
15107;DHT22;7654;45.308;-75.096;2023-03-31T09:14:26;-5.10;99.90
15107;DHT22;7654;45.308;-75.096;2023-03-31T09:17:06;-5.10;99.90
15107;DHT22;7654;45.308;-75.096;2023-03-31T09:19:46;-5.20;99.90
15107;DHT22;7654;45.308;-75.096;2023-03-31T09:22:22;-5.20;99.90
15107;DHT22;7654;45.308;-75.096;2023-03-31T09:24:58;-5.20;99.90
15107;DHT22;7654;45.308;-75.096;2023-03-31T09:27:30;-5.20;99.90
15107;DHT22;7654;45.308;-75.096;2023-03-31T09:30:10;-5.10;99.90
15107;DHT22;7654;45.308;-75.096;2023-03-31T09:32:43;-5.10;99.90
15107;DHT22;7654;45.308;-75.096;2023-03-31T09:35:18;-5.10;99.90
15107;DHT22;7654;45.308;-75.096;2023-03-31T09:37:50;-5.10;99.90
15107;DHT22;7654;45.308;-75.096;2023-03-31T09:40:23;-5.10;99.90
15107;DHT22;7654;45.308;-75.096;2023-03-31T09:42:57;-5.10;99.90
15107;DHT22;7654;45.308;-75.096;2023-03-31T09:45:29;-5.10;99.90
15107;DHT22;7654;45.308;-75.096;2023-03-31T09:48:02;-5.20;99.90
15107;DHT22;7654;45.308;-75.096;2023-03-31T09:50:39;-5.20;99.90
15107;DHT22;7654;45.308;-75.096;2023-03-31T09:53:17;-5.20;99.90
15107;DHT22;7654;45.308;-75.096;2023-03-31T09:55:51;-5.20;99.90
15107;DHT22;7654;45.308;-75.096;2023-03-31T09:58:24;-5.30;99.90
15107;DHT22;7654;45.308;-75.096;2023-03-31T10:00:59;-5.40;99.90
15107;DHT22;7654;45.308;-75.096;2023-03-31T10:03:30;-5.60;99.90
15107;DHT22;7654;45.308;-75.096;2023-03-31T10:06:09;-5.70;99.90
15107;DHT22;7654;45.308;-75.096;2023-03-31T10:08:42;-5.90;99.90
15107;DHT22;7654;45.308;-75.096;2023-03-31T10:11:16;-6.00;99.90
15107;DHT22;7654;45.308;-75.096;2023-03-31T10:13:49;-6.10;99.90
15107;DHT22;7654;45.308;-75.096;2023-03-31T10:16:29;-6.10;99.90
15107;DHT22;7654;45.308;-75.096;2023-03-31T10:19:17;-6.10;99.90
15107;DHT22;7654;45.308;-75.096;2023-03-31T10:21:55;-6.20;99.90
15107;DHT22;7654;45.308;-75.096;2023-03-31T10:24:36;-6.20;99.90
15107;DHT22;7654;45.308;-75.096;2023-03-31T10:27:17;-6.30;99.90
15107;DHT22;7654;45.308;-75.096;2023-03-31T10:29:51;-6.40;99.90
15107;DHT22;7654;45.308;-75.096;2023-03-31T10:32:25;-6.50;99.90
15107;DHT22;7654;45.308;-75.096;2023-03-31T10:34:56;-6.60;99.90
15107;DHT22;7654;45.308;-75.096;2023-03-31T10:37:28;-6.80;99.90
15107;DHT22;7654;45.308;-75.096;2023-03-31T10:40:02;-6.80;99.90
15107;DHT22;7654;45.308;-75.096;2023-03-31T10:42:34;-6.90;99.90
15107;DHT22;7654;45.308;-75.096;2023-03-31T10:45:25;-7.00;99.90
15107;DHT22;7654;45.308;-75.096;2023-03-31T10:48:15;-6.90;99.90
15107;DHT22;7654;45.308;-75.096;2023-03-31T10:50:47;-6.70;99.90
15107;DHT22;7654;45.308;-75.096;2023-03-31T10:53:18;-6.40;99.90
15107;DHT22;7654;45.308;-75.096;2023-03-31T10:55:57;-6.10;99.90
15107;DHT22;7654;45.308;-75.096;2023-03-31T10:58:38;-6.00;99.90
15107;DHT22;7654;45.308;-75.096;2023-03-31T11:01:33;-5.80;99.90
15107;DHT22;7654;45.308;-75.096;2023-03-31T11:04:34;-5.90;99.90
15107;DHT22;7654;45.308;-75.096;2023-03-31T11:07:12;-5.80;99.90
15107;DHT22;7654;45.308;-75.096;2023-03-31T11:09:53;-5.80;99.90
15107;DHT22;7654;45.308;-75.096;2023-03-31T11:12:35;-5.90;99.90
15107;DHT22;7654;45.308;-75.096;2023-03-31T11:15:15;-6.00;99.90
15107;DHT22;7654;45.308;-75.096;2023-03-31T11:18:08;-6.00;99.90
15107;DHT22;7654;45.308;-75.096;2023-03-31T11:20:52;-6.10;99.90
15107;DHT22;7654;45.308;-75.096;2023-03-31T11:23:43;-6.20;99.90
15107;DHT22;7654;45.308;-75.096;2023-03-31T11:26:19;-6.20;99.90
15107;DHT22;7654;45.308;-75.096;2023-03-31T11:29:11;-6.10;99.90
15107;DHT22;7654;45.308;-75.096;2023-03-31T11:31:51;-6.10;99.90
15107;DHT22;7654;45.308;-75.096;2023-03-31T11:34:42;-6.00;99.90
15107;DHT22;7654;45.308;-75.096;2023-03-31T11:37:25;-5.90;99.90
15107;DHT22;7654;45.308;-75.096;2023-03-31T11:40:16;-5.80;99.90
15107;DHT22;7654;45.308;-75.096;2023-03-31T11:42:50;-5.80;99.90
15107;DHT22;7654;45.308;-75.096;2023-03-31T11:45:27;-5.70;99.90
15107;DHT22;7654;45.308;-75.096;2023-03-31T11:48:02;-5.70;99.90
15107;DHT22;7654;45.308;-75.096;2023-03-31T11:50:36;-5.60;99.90
15107;DHT22;7654;45.308;-75.096;2023-03-31T11:53:14;-5.50;99.90
15107;DHT22;7654;45.308;-75.096;2023-03-31T11:55:47;-5.40;99.90
15107;DHT22;7654;45.308;-75.096;2023-03-31T11:58:20;-5.20;99.90
15107;DHT22;7654;45.308;-75.096;2023-03-31T12:00:57;-5.00;99.90
15107;DHT22;7654;45.308;-75.096;2023-03-31T12:03:37;-4.90;99.90
15107;DHT22;7654;45.308;-75.096;2023-03-31T12:06:12;-4.90;99.90
15107;DHT22;7654;45.308;-75.096;2023-03-31T12:08:52;-4.80;99.90
15107;DHT22;7654;45.308;-75.096;2023-03-31T12:11:30;-4.70;99.90
15107;DHT22;7654;45.308;-75.096;2023-03-31T12:14:12;-4.60;99.90
15107;DHT22;7654;45.308;-75.096;2023-03-31T12:16:46;-4.40;99.90
15107;DHT22;7654;45.308;-75.096;2023-03-31T12:19:20;-4.10;99.90
15107;DHT22;7654;45.308;-75.096;2023-03-31T12:21:53;-3.70;99.90
15107;DHT22;7654;45.308;-75.096;2023-03-31T12:24:24;-3.40;99.90
15107;DHT22;7654;45.308;-75.096;2023-03-31T12:27:04;-3.10;99.90
15107;DHT22;7654;45.308;-75.096;2023-03-31T12:29:38;-2.90;99.90
15107;DHT22;7654;45.308;-75.096;2023-03-31T12:32:15;-2.70;99.90
15107;DHT22;7654;45.308;-75.096;2023-03-31T12:34:53;-2.60;99.90
15107;DHT22;7654;45.308;-75.096;2023-03-31T12:37:55;-2.60;99.90
15107;DHT22;7654;45.308;-75.096;2023-03-31T12:40:49;-2.60;99.90
15107;DHT22;7654;45.308;-75.096;2023-03-31T12:43:55;-2.60;99.90
15107;DHT22;7654;45.308;-75.096;2023-03-31T12:46:50;-2.60;99.90
15107;DHT22;7654;45.308;-75.096;2023-03-31T12:49:36;-2.60;99.90
15107;DHT22;7654;45.308;-75.096;2023-03-31T12:52:12;-2.40;99.90
15107;DHT22;7654;45.308;-75.096;2023-03-31T13:01:03;-2.10;99.90
15107;DHT22;7654;45.308;-75.096;2023-03-31T13:03:46;-2.00;99.90
15107;DHT22;7654;45.308;-75.096;2023-03-31T13:06:47;-1.80;99.90
15107;DHT22;7654;45.308;-75.096;2023-03-31T13:09:41;-1.60;99.90
15107;DHT22;7654;45.308;-75.096;2023-03-31T13:12:20;-1.30;99.90
15107;DHT22;7654;45.308;-75.096;2023-03-31T13:14:51;-0.90;99.90
15107;DHT22;7654;45.308;-75.096;2023-03-31T13:17:30;-0.50;99.90
15107;DHT22;7654;45.308;-75.096;2023-03-31T13:20:23;0.20;99.90
15107;DHT22;7654;45.308;-75.096;2023-03-31T13:23:02;0.70;99.90
15107;DHT22;7654;45.308;-75.096;2023-03-31T13:25:48;1.10;99.90
15107;DHT22;7654;45.308;-75.096;2023-03-31T13:28:38;1.40;99.90
15107;DHT22;7654;45.308;-75.096;2023-03-31T13:31:10;1.60;99.90
15107;DHT22;7654;45.308;-75.096;2023-03-31T13:33:46;1.80;99.90
15107;DHT22;7654;45.308;-75.096;2023-03-31T13:36:48;2.00;99.90
15107;DHT22;7654;45.308;-75.096;2023-03-31T13:42:58;2.10;99.90
15107;DHT22;7654;45.308;-75.096;2023-03-31T13:45:47;2.10;99.90
15107;DHT22;7654;45.308;-75.096;2023-03-31T13:48:33;2.00;99.90
15107;DHT22;7654;45.308;-75.096;2023-03-31T13:51:34;2.20;99.90
15107;DHT22;7654;45.308;-75.096;2023-03-31T13:54:53;2.40;99.90
15107;DHT22;7654;45.308;-75.096;2023-03-31T14:04:15;3.20;99.90
15107;DHT22;7654;45.308;-75.096;2023-03-31T14:06:54;3.50;99.90
15107;DHT22;7654;45.308;-75.096;2023-03-31T14:09:30;3.70;99.90
15107;DHT22;7654;45.308;-75.096;2023-03-31T14:12:19;3.80;99.90
15107;DHT22;7654;45.308;-75.096;2023-03-31T14:14:52;3.90;99.90
15107;DHT22;7654;45.308;-75.096;2023-03-31T14:17:26;4.00;99.90
15107;DHT22;7654;45.308;-75.096;2023-03-31T14:20:12;3.90;99.90
15107;DHT22;7654;45.308;-75.096;2023-03-31T14:22:53;4.10;99.90
15107;DHT22;7654;45.308;-75.096;2023-03-31T14:25:35;4.30;99.90
15107;DHT22;7654;45.308;-75.096;2023-03-31T14:28:34;4.30;99.90
15107;DHT22;7654;45.308;-75.096;2023-03-31T14:31:13;4.50;99.90
15107;DHT22;7654;45.308;-75.096;2023-03-31T14:34:07;4.80;99.70
15107;DHT22;7654;45.308;-75.096;2023-03-31T14:36:45;4.70;98.20
15107;DHT22;7654;45.308;-75.096;2023-03-31T14:39:21;4.80;98.20
15107;DHT22;7654;45.308;-75.096;2023-03-31T14:41:55;4.80;98.10
15107;DHT22;7654;45.308;-75.096;2023-03-31T14:44:30;5.00;97.70
15107;DHT22;7654;45.308;-75.096;2023-03-31T14:47:02;5.00;97.70
15107;DHT22;7654;45.308;-75.096;2023-03-31T14:49:37;5.00;96.90
15107;DHT22;7654;45.308;-75.096;2023-03-31T14:52:14;5.20;98.00
15107;DHT22;7654;45.308;-75.096;2023-03-31T14:54:45;5.30;96.70
15107;DHT22;7654;45.308;-75.096;2023-03-31T14:57:18;5.50;96.70
15107;DHT22;7654;45.308;-75.096;2023-03-31T14:59:51;5.80;97.00
15107;DHT22;7654;45.308;-75.096;2023-03-31T15:02:29;5.60;95.30
15107;DHT22;7654;45.308;-75.096;2023-03-31T15:05:02;5.70;96.20
15107;DHT22;7654;45.308;-75.096;2023-03-31T15:07:34;6.00;96.50
15107;DHT22;7654;45.308;-75.096;2023-03-31T15:10:06;6.30;96.40
15107;DHT22;7654;45.308;-75.096;2023-03-31T15:12:37;6.30;96.10
15107;DHT22;7654;45.308;-75.096;2023-03-31T15:15:11;6.60;95.80
15107;DHT22;7654;45.308;-75.096;2023-03-31T15:17:45;6.90;95.80
15107;DHT22;7654;45.308;-75.096;2023-03-31T15:20:34;6.70;93.90
15107;DHT22;7654;45.308;-75.096;2023-03-31T15:23:18;6.60;93.60
15107;DHT22;7654;45.308;-75.096;2023-03-31T15:25:54;6.50;94.20
15107;DHT22;7654;45.308;-75.096;2023-03-31T15:28:39;6.50;95.30
15107;DHT22;7654;45.308;-75.096;2023-03-31T15:31:16;6.70;96.40
15107;DHT22;7654;45.308;-75.096;2023-03-31T15:33:46;6.90;96.50
15107;DHT22;7654;45.308;-75.096;2023-03-31T15:36:17;6.80;95.80
15107;DHT22;7654;45.308;-75.096;2023-03-31T15:38:54;6.90;95.80
15107;DHT22;7654;45.308;-75.096;2023-03-31T15:41:29;7.00;95.40
15107;DHT22;7654;45.308;-75.096;2023-03-31T15:44:05;7.10;95.40
15107;DHT22;7654;45.308;-75.096;2023-03-31T15:46:58;7.10;94.70
15107;DHT22;7654;45.308;-75.096;2023-03-31T15:49:29;6.80;94.80
15107;DHT22;7654;45.308;-75.096;2023-03-31T15:52:00;7.00;95.70
15107;DHT22;7654;45.308;-75.096;2023-03-31T15:54:36;7.40;94.30
15107;DHT22;7654;45.308;-75.096;2023-03-31T15:57:08;7.40;93.00
15107;DHT22;7654;45.308;-75.096;2023-03-31T15:59:48;7.40;93.30
15107;DHT22;7654;45.308;-75.096;2023-03-31T16:02:26;7.50;92.90
15107;DHT22;7654;45.308;-75.096;2023-03-31T16:04:58;7.50;92.50
15107;DHT22;7654;45.308;-75.096;2023-03-31T16:07:33;7.70;93.50
15107;DHT22;7654;45.308;-75.096;2023-03-31T16:10:06;7.50;91.90
15107;DHT22;7654;45.308;-75.096;2023-03-31T16:12:39;7.50;91.90
15107;DHT22;7654;45.308;-75.096;2023-03-31T16:15:13;7.50;92.40
15107;DHT22;7654;45.308;-75.096;2023-03-31T16:17:50;7.60;92.50
15107;DHT22;7654;45.308;-75.096;2023-03-31T16:20:24;7.20;92.20
15107;DHT22;7654;45.308;-75.096;2023-03-31T16:22:56;7.00;92.60
15107;DHT22;7654;45.308;-75.096;2023-03-31T16:25:29;6.90;92.50
15107;DHT22;7654;45.308;-75.096;2023-03-31T16:28:00;6.40;92.20
15107;DHT22;7654;45.308;-75.096;2023-03-31T16:30:36;6.70;93.50
15107;DHT22;7654;45.308;-75.096;2023-03-31T16:33:10;6.60;93.30
15107;DHT22;7654;45.308;-75.096;2023-03-31T16:35:43;6.90;92.80
15107;DHT22;7654;45.308;-75.096;2023-03-31T16:38:16;7.10;93.40
15107;DHT22;7654;45.308;-75.096;2023-03-31T16:40:47;7.30;92.80